sensor_id;sensor_type;location;lat;lon;timestamp;P1;durP1;ratioP1;P2;durP2;ratioP2
25279;SDS011;13225;47.804;12.116;2023-07-13T00:00:53;3.97;;;2.80;;
25279;SDS011;13225;47.804;12.116;2023-07-13T00:03:18;3.58;;;2.60;;
25279;SDS011;13225;47.804;12.116;2023-07-13T00:05:44;3.65;;;2.42;;
25279;SDS011;13225;47.804;12.116;2023-07-13T00:08:09;7.30;;;2.90;;
25279;SDS011;13225;47.804;12.116;2023-07-13T00:10:40;4.90;;;2.90;;
25279;SDS011;13225;47.804;12.116;2023-07-13T00:13:06;3.80;;;2.60;;
25279;SDS011;13225;47.804;12.116;2023-07-13T00:15:33;3.47;;;2.72;;
25279;SDS011;13225;47.804;12.116;2023-07-13T00:18:00;5.32;;;2.95;;
25279;SDS011;13225;47.804;12.116;2023-07-13T00:20:25;6.13;;;2.97;;
25279;SDS011;13225;47.804;12.116;2023-07-13T00:22:52;5.18;;;3.08;;
25279;SDS011;13225;47.804;12.116;2023-07-13T00:25:21;3.13;;;2.55;;
25279;SDS011;13225;47.804;12.116;2023-07-13T00:27:49;2.85;;;2.03;;
25279;SDS011;13225;47.804;12.116;2023-07-13T00:30:15;3.20;;;1.88;;
25279;SDS011;13225;47.804;12.116;2023-07-13T00:32:41;2.85;;;1.80;;
25279;SDS011;13225;47.804;12.116;2023-07-13T00:35:07;2.10;;;1.90;;
25279;SDS011;13225;47.804;12.116;2023-07-13T00:37:33;3.75;;;1.80;;
25279;SDS011;13225;47.804;12.116;2023-07-13T00:40:00;2.35;;;1.65;;
25279;SDS011;13225;47.804;12.116;2023-07-13T00:42:27;2.38;;;1.67;;
25279;SDS011;13225;47.804;12.116;2023-07-13T00:47:37;1.83;;;1.65;;
25279;SDS011;13225;47.804;12.116;2023-07-13T00:50:08;2.00;;;1.67;;
25279;SDS011;13225;47.804;12.116;2023-07-13T00:52:36;2.25;;;1.52;;
25279;SDS011;13225;47.804;12.116;2023-07-13T00:55:05;3.80;;;1.50;;
25279;SDS011;13225;47.804;12.116;2023-07-13T00:57:31;1.63;;;1.50;;
25279;SDS011;13225;47.804;12.116;2023-07-13T00:59:57;2.13;;;1.50;;
25279;SDS011;13225;47.804;12.116;2023-07-13T01:02:31;2.33;;;1.70;;
25279;SDS011;13225;47.804;12.116;2023-07-13T01:04:58;2.17;;;1.80;;
25279;SDS011;13225;47.804;12.116;2023-07-13T01:07:24;2.42;;;1.83;;
25279;SDS011;13225;47.804;12.116;2023-07-13T01:09:50;3.03;;;1.80;;
25279;SDS011;13225;47.804;12.116;2023-07-13T01:12:16;2.35;;;1.50;;
25279;SDS011;13225;47.804;12.116;2023-07-13T01:14:41;4.30;;;2.08;;
25279;SDS011;13225;47.804;12.116;2023-07-13T01:17:10;2.03;;;1.80;;
25279;SDS011;13225;47.804;12.116;2023-07-13T01:19:45;2.00;;;1.90;;
25279;SDS011;13225;47.804;12.116;2023-07-13T01:22:12;1.88;;;1.67;;
25279;SDS011;13225;47.804;12.116;2023-07-13T01:24:44;1.95;;;1.83;;
25279;SDS011;13225;47.804;12.116;2023-07-13T01:27:13;3.75;;;1.80;;
25279;SDS011;13225;47.804;12.116;2023-07-13T01:29:42;2.38;;;2.10;;
25279;SDS011;13225;47.804;12.116;2023-07-13T01:32:14;3.58;;;2.15;;
25279;SDS011;13225;47.804;12.116;2023-07-13T01:34:42;2.38;;;1.67;;
25279;SDS011;13225;47.804;12.116;2023-07-13T01:37:09;2.80;;;1.60;;
25279;SDS011;13225;47.804;12.116;2023-07-13T01:39:36;4.03;;;1.92;;
25279;SDS011;13225;47.804;12.116;2023-07-13T01:42:02;3.85;;;1.85;;
25279;SDS011;13225;47.804;12.116;2023-07-13T01:44:28;3.58;;;2.40;;
25279;SDS011;13225;47.804;12.116;2023-07-13T01:46:54;1.77;;;1.67;;
25279;SDS011;13225;47.804;12.116;2023-07-13T01:49:20;2.60;;;1.80;;
25279;SDS011;13225;47.804;12.116;2023-07-13T01:51:45;2.28;;;1.58;;
25279;SDS011;13225;47.804;12.116;2023-07-13T01:54:11;2.10;;;1.70;;
25279;SDS011;13225;47.804;12.116;2023-07-13T01:56:37;2.05;;;1.70;;
25279;SDS011;13225;47.804;12.116;2023-07-13T01:59:02;2.40;;;1.55;;
25279;SDS011;13225;47.804;12.116;2023-07-13T02:01:28;1.75;;;1.60;;
25279;SDS011;13225;47.804;12.116;2023-07-13T02:03:53;1.52;;;1.42;;
25279;SDS011;13225;47.804;12.116;2023-07-13T02:06:19;2.05;;;1.55;;
25279;SDS011;13225;47.804;12.116;2023-07-13T02:08:44;1.40;;;1.30;;
25279;SDS011;13225;47.804;12.116;2023-07-13T02:11:10;2.15;;;1.50;;
25279;SDS011;13225;47.804;12.116;2023-07-13T02:13:36;1.90;;;1.67;;
25279;SDS011;13225;47.804;12.116;2023-07-13T02:16:01;1.70;;;1.60;;
25279;SDS011;13225;47.804;12.116;2023-07-13T02:18:27;1.92;;;1.60;;
25279;SDS011;13225;47.804;12.116;2023-07-13T02:20:52;2.53;;;1.98;;
25279;SDS011;13225;47.804;12.116;2023-07-13T02:23:18;2.58;;;1.73;;
25279;SDS011;13225;47.804;12.116;2023-07-13T02:25:43;3.40;;;2.40;;
25279;SDS011;13225;47.804;12.116;2023-07-13T02:28:09;2.70;;;1.90;;
25279;SDS011;13225;47.804;12.116;2023-07-13T02:30:35;3.53;;;2.20;;
25279;SDS011;13225;47.804;12.116;2023-07-13T02:33:01;2.55;;;2.25;;
25279;SDS011;13225;47.804;12.116;2023-07-13T02:35:27;3.15;;;2.10;;
25279;SDS011;13225;47.804;12.116;2023-07-13T02:37:52;5.47;;;2.45;;
25279;SDS011;13225;47.804;12.116;2023-07-13T02:40:18;4.75;;;2.67;;
25279;SDS011;13225;47.804;12.116;2023-07-13T02:42:44;3.28;;;2.80;;
25279;SDS011;13225;47.804;12.116;2023-07-13T02:45:10;4.57;;;2.60;;
25279;SDS011;13225;47.804;12.116;2023-07-13T02:47:39;2.45;;;2.20;;
25279;SDS011;13225;47.804;12.116;2023-07-13T02:50:06;2.92;;;2.60;;
25279;SDS011;13225;47.804;12.116;2023-07-13T02:52:32;3.50;;;2.50;;
25279;SDS011;13225;47.804;12.116;2023-07-13T02:54:58;3.92;;;2.80;;
25279;SDS011;13225;47.804;12.116;2023-07-13T02:57:23;3.17;;;2.30;;
25279;SDS011;13225;47.804;12.116;2023-07-13T02:59:49;5.25;;;2.80;;
25279;SDS011;13225;47.804;12.116;2023-07-13T03:02:15;3.25;;;2.05;;
25279;SDS011;13225;47.804;12.116;2023-07-13T03:04:41;2.70;;;2.45;;
25279;SDS011;13225;47.804;12.116;2023-07-13T03:07:06;5.20;;;2.70;;
25279;SDS011;13225;47.804;12.116;2023-07-13T03:09:34;3.38;;;2.30;;
25279;SDS011;13225;47.804;12.116;2023-07-13T03:12:00;4.35;;;2.08;;
25279;SDS011;13225;47.804;12.116;2023-07-13T03:14:26;4.03;;;2.05;;
25279;SDS011;13225;47.804;12.116;2023-07-13T03:16:52;5.20;;;2.35;;
25279;SDS011;13225;47.804;12.116;2023-07-13T03:19:17;4.00;;;2.58;;
25279;SDS011;13225;47.804;12.116;2023-07-13T03:21:43;4.50;;;3.35;;
25279;SDS011;13225;47.804;12.116;2023-07-13T03:24:09;3.67;;;3.30;;
25279;SDS011;13225;47.804;12.116;2023-07-13T03:26:35;4.68;;;3.00;;
25279;SDS011;13225;47.804;12.116;2023-07-13T03:29:00;6.60;;;2.92;;
25279;SDS011;13225;47.804;12.116;2023-07-13T03:31:27;4.40;;;2.53;;
25279;SDS011;13225;47.804;12.116;2023-07-13T03:33:54;4.28;;;2.70;;
25279;SDS011;13225;47.804;12.116;2023-07-13T03:36:22;5.57;;;2.95;;
25279;SDS011;13225;47.804;12.116;2023-07-13T03:38:51;3.05;;;2.63;;
25279;SDS011;13225;47.804;12.116;2023-07-13T03:41:19;5.85;;;2.72;;
25279;SDS011;13225;47.804;12.116;2023-07-13T03:43:45;3.95;;;2.67;;
25279;SDS011;13225;47.804;12.116;2023-07-13T03:46:13;4.50;;;2.28;;
25279;SDS011;13225;47.804;12.116;2023-07-13T03:48:39;4.18;;;2.63;;
25279;SDS011;13225;47.804;12.116;2023-07-13T03:51:07;4.47;;;2.35;;
25279;SDS011;13225;47.804;12.116;2023-07-13T03:53:33;3.97;;;2.47;;
25279;SDS011;13225;47.804;12.116;2023-07-13T03:56:03;2.50;;;2.30;;
25279;SDS011;13225;47.804;12.116;2023-07-13T03:58:36;4.28;;;2.50;;
25279;SDS011;13225;47.804;12.116;2023-07-13T04:01:04;6.28;;;2.72;;
25279;SDS011;13225;47.804;12.116;2023-07-13T04:03:32;5.95;;;2.50;;
25279;SDS011;13225;47.804;12.116;2023-07-13T04:06:08;5.78;;;2.60;;
25279;SDS011;13225;47.804;12.116;2023-07-13T04:08:40;4.22;;;2.90;;
25279;SDS011;13225;47.804;12.116;2023-07-13T04:11:06;5.80;;;2.65;;
25279;SDS011;13225;47.804;12.116;2023-07-13T04:13:31;4.13;;;3.00;;
25279;SDS011;13225;47.804;12.116;2023-07-13T04:15:57;3.83;;;2.55;;
25279;SDS011;13225;47.804;12.116;2023-07-13T04:18:23;2.80;;;2.33;;
25279;SDS011;13225;47.804;12.116;2023-07-13T04:20:49;3.35;;;2.50;;
25279;SDS011;13225;47.804;12.116;2023-07-13T04:23:16;2.65;;;2.40;;
25279;SDS011;13225;47.804;12.116;2023-07-13T04:25:45;5.15;;;2.53;;
25279;SDS011;13225;47.804;12.116;2023-07-13T04:28:14;4.53;;;2.60;;
25279;SDS011;13225;47.804;12.116;2023-07-13T04:30:40;2.90;;;2.45;;
25279;SDS011;13225;47.804;12.116;2023-07-13T04:33:06;3.45;;;3.08;;
25279;SDS011;13225;47.804;12.116;2023-07-13T04:35:33;3.60;;;3.10;;
25279;SDS011;13225;47.804;12.116;2023-07-13T04:37:59;5.47;;;3.80;;
25279;SDS011;13225;47.804;12.116;2023-07-13T04:40:26;4.13;;;2.78;;
25279;SDS011;13225;47.804;12.116;2023-07-13T04:42:52;4.90;;;2.42;;
25279;SDS011;13225;47.804;12.116;2023-07-13T04:45:18;4.32;;;2.88;;
25279;SDS011;13225;47.804;12.116;2023-07-13T04:47:44;5.82;;;3.88;;
25279;SDS011;13225;47.804;12.116;2023-07-13T04:50:12;10.77;;;8.20;;
25279;SDS011;13225;47.804;12.116;2023-07-13T04:52:43;7.25;;;4.00;;
25279;SDS011;13225;47.804;12.116;2023-07-13T04:55:09;9.77;;;5.75;;
25279;SDS011;13225;47.804;12.116;2023-07-13T04:57:36;6.75;;;3.70;;
25279;SDS011;13225;47.804;12.116;2023-07-13T05:00:02;8.77;;;4.78;;
25279;SDS011;13225;47.804;12.116;2023-07-13T05:02:32;4.50;;;3.30;;
25279;SDS011;13225;47.804;12.116;2023-07-13T05:04:58;3.95;;;2.95;;
25279;SDS011;13225;47.804;12.116;2023-07-13T05:07:24;4.07;;;3.13;;
25279;SDS011;13225;47.804;12.116;2023-07-13T05:09:51;6.55;;;3.15;;
25279;SDS011;13225;47.804;12.116;2023-07-13T05:12:17;4.55;;;3.40;;
25279;SDS011;13225;47.804;12.116;2023-07-13T05:14:42;4.20;;;3.08;;
25279;SDS011;13225;47.804;12.116;2023-07-13T05:17:08;5.00;;;3.08;;
25279;SDS011;13225;47.804;12.116;2023-07-13T05:19:34;4.75;;;3.13;;
25279;SDS011;13225;47.804;12.116;2023-07-13T05:22:00;8.95;;;3.30;;
25279;SDS011;13225;47.804;12.116;2023-07-13T05:24:27;4.30;;;2.75;;
25279;SDS011;13225;47.804;12.116;2023-07-13T05:26:53;5.47;;;2.90;;
25279;SDS011;13225;47.804;12.116;2023-07-13T05:29:19;4.32;;;2.88;;
25279;SDS011;13225;47.804;12.116;2023-07-13T05:31:46;4.20;;;3.10;;
25279;SDS011;13225;47.804;12.116;2023-07-13T05:34:11;4.57;;;2.83;;
25279;SDS011;13225;47.804;12.116;2023-07-13T05:36:37;4.65;;;2.72;;
25279;SDS011;13225;47.804;12.116;2023-07-13T05:39:03;4.22;;;2.50;;
25279;SDS011;13225;47.804;12.116;2023-07-13T05:41:29;4.78;;;2.55;;
25279;SDS011;13225;47.804;12.116;2023-07-13T05:43:54;5.35;;;2.47;;
25279;SDS011;13225;47.804;12.116;2023-07-13T05:46:20;2.92;;;2.28;;
25279;SDS011;13225;47.804;12.116;2023-07-13T05:48:46;9.05;;;2.50;;
25279;SDS011;13225;47.804;12.116;2023-07-13T05:51:12;4.65;;;2.42;;
25279;SDS011;13225;47.804;12.116;2023-07-13T05:53:38;4.13;;;2.90;;
25279;SDS011;13225;47.804;12.116;2023-07-13T05:56:03;4.05;;;2.40;;
25279;SDS011;13225;47.804;12.116;2023-07-13T05:58:29;3.40;;;2.40;;
25279;SDS011;13225;47.804;12.116;2023-07-13T06:00:59;3.28;;;2.60;;
25279;SDS011;13225;47.804;12.116;2023-07-13T06:03:33;4.22;;;2.47;;
25279;SDS011;13225;47.804;12.116;2023-07-13T06:05:59;3.33;;;2.30;;
25279;SDS011;13225;47.804;12.116;2023-07-13T06:08:27;3.38;;;2.40;;
25279;SDS011;13225;47.804;12.116;2023-07-13T06:10:54;4.00;;;2.63;;
25279;SDS011;13225;47.804;12.116;2023-07-13T06:13:19;2.97;;;2.55;;
25279;SDS011;13225;47.804;12.116;2023-07-13T06:15:51;4.80;;;2.83;;
25279;SDS011;13225;47.804;12.116;2023-07-13T06:18:16;3.50;;;2.80;;
25279;SDS011;13225;47.804;12.116;2023-07-13T06:20:42;7.05;;;3.00;;
25279;SDS011;13225;47.804;12.116;2023-07-13T06:23:07;5.60;;;3.10;;
25279;SDS011;13225;47.804;12.116;2023-07-13T06:25:33;5.55;;;3.20;;
25279;SDS011;13225;47.804;12.116;2023-07-13T06:27:59;6.43;;;3.15;;
25279;SDS011;13225;47.804;12.116;2023-07-13T06:30:25;6.70;;;3.65;;
25279;SDS011;13225;47.804;12.116;2023-07-13T06:32:51;5.13;;;3.50;;
25279;SDS011;13225;47.804;12.116;2023-07-13T06:35:17;4.38;;;2.80;;
25279;SDS011;13225;47.804;12.116;2023-07-13T06:37:43;6.68;;;3.10;;
25279;SDS011;13225;47.804;12.116;2023-07-13T06:40:08;5.00;;;3.10;;
25279;SDS011;13225;47.804;12.116;2023-07-13T06:42:34;3.50;;;3.08;;
25279;SDS011;13225;47.804;12.116;2023-07-13T06:45:00;3.70;;;2.65;;
25279;SDS011;13225;47.804;12.116;2023-07-13T06:47:26;4.45;;;3.05;;
25279;SDS011;13225;47.804;12.116;2023-07-13T06:49:52;6.63;;;3.00;;
25279;SDS011;13225;47.804;12.116;2023-07-13T06:52:17;3.72;;;2.97;;
25279;SDS011;13225;47.804;12.116;2023-07-13T06:54:43;4.72;;;3.20;;
25279;SDS011;13225;47.804;12.116;2023-07-13T06:57:09;4.57;;;3.20;;
25279;SDS011;13225;47.804;12.116;2023-07-13T06:59:34;5.55;;;3.65;;
25279;SDS011;13225;47.804;12.116;2023-07-13T07:02:00;4.15;;;3.28;;
25279;SDS011;13225;47.804;12.116;2023-07-13T07:04:25;6.25;;;3.08;;
25279;SDS011;13225;47.804;12.116;2023-07-13T07:06:52;3.67;;;2.65;;
25279;SDS011;13225;47.804;12.116;2023-07-13T07:09:17;5.82;;;3.13;;
25279;SDS011;13225;47.804;12.116;2023-07-13T07:11:43;4.95;;;3.05;;
25279;SDS011;13225;47.804;12.116;2023-07-13T07:14:08;5.57;;;3.17;;
25279;SDS011;13225;47.804;12.116;2023-07-13T07:16:34;4.88;;;3.08;;
25279;SDS011;13225;47.804;12.116;2023-07-13T07:19:00;4.93;;;3.40;;
25279;SDS011;13225;47.804;12.116;2023-07-13T07:21:25;7.70;;;3.10;;
25279;SDS011;13225;47.804;12.116;2023-07-13T07:23:52;3.97;;;2.75;;
25279;SDS011;13225;47.804;12.116;2023-07-13T07:26:18;3.90;;;3.10;;
25279;SDS011;13225;47.804;12.116;2023-07-13T07:28:44;4.35;;;3.20;;
25279;SDS011;13225;47.804;12.116;2023-07-13T07:31:09;5.10;;;2.92;;
25279;SDS011;13225;47.804;12.116;2023-07-13T07:33:35;7.85;;;3.42;;
25279;SDS011;13225;47.804;12.116;2023-07-13T07:36:01;4.25;;;2.67;;
25279;SDS011;13225;47.804;12.116;2023-07-13T07:38:28;5.80;;;2.70;;
25279;SDS011;13225;47.804;12.116;2023-07-13T07:40:54;4.18;;;2.80;;
25279;SDS011;13225;47.804;12.116;2023-07-13T07:43:19;5.72;;;2.67;;
25279;SDS011;13225;47.804;12.116;2023-07-13T07:45:45;2.83;;;2.45;;
25279;SDS011;13225;47.804;12.116;2023-07-13T07:48:11;4.20;;;2.22;;
25279;SDS011;13225;47.804;12.116;2023-07-13T07:50:37;3.25;;;2.30;;
25279;SDS011;13225;47.804;12.116;2023-07-13T07:53:04;4.15;;;2.33;;
25279;SDS011;13225;47.804;12.116;2023-07-13T07:55:32;2.58;;;2.38;;
25279;SDS011;13225;47.804;12.116;2023-07-13T07:58:00;5.68;;;2.40;;
25279;SDS011;13225;47.804;12.116;2023-07-13T08:00:25;6.93;;;2.50;;
25279;SDS011;13225;47.804;12.116;2023-07-13T08:02:51;4.13;;;2.55;;
25279;SDS011;13225;47.804;12.116;2023-07-13T08:05:17;3.85;;;2.60;;
25279;SDS011;13225;47.804;12.116;2023-07-13T08:07:43;4.50;;;2.40;;
25279;SDS011;13225;47.804;12.116;2023-07-13T08:10:08;5.65;;;2.75;;
25279;SDS011;13225;47.804;12.116;2023-07-13T08:12:35;3.53;;;2.60;;
25279;SDS011;13225;47.804;12.116;2023-07-13T08:15:01;2.70;;;2.22;;
25279;SDS011;13225;47.804;12.116;2023-07-13T08:17:27;3.90;;;2.60;;
25279;SDS011;13225;47.804;12.116;2023-07-13T08:19:52;3.53;;;2.70;;
25279;SDS011;13225;47.804;12.116;2023-07-13T08:22:18;3.53;;;2.83;;
25279;SDS011;13225;47.804;12.116;2023-07-13T08:24:44;4.68;;;2.70;;
25279;SDS011;13225;47.804;12.116;2023-07-13T08:27:12;4.18;;;2.45;;
25279;SDS011;13225;47.804;12.116;2023-07-13T08:29:38;4.13;;;3.03;;
25279;SDS011;13225;47.804;12.116;2023-07-13T08:32:04;3.10;;;2.83;;
25279;SDS011;13225;47.804;12.116;2023-07-13T08:34:34;3.70;;;2.35;;
25279;SDS011;13225;47.804;12.116;2023-07-13T08:37:00;3.72;;;2.38;;
25279;SDS011;13225;47.804;12.116;2023-07-13T08:39:26;3.92;;;2.50;;
25279;SDS011;13225;47.804;12.116;2023-07-13T08:41:53;4.30;;;2.10;;
25279;SDS011;13225;47.804;12.116;2023-07-13T08:44:30;3.38;;;2.33;;
25279;SDS011;13225;47.804;12.116;2023-07-13T08:47:15;2.92;;;2.13;;
25279;SDS011;13225;47.804;12.116;2023-07-13T08:49:42;3.45;;;2.40;;
25279;SDS011;13225;47.804;12.116;2023-07-13T08:52:16;4.38;;;2.65;;
25279;SDS011;13225;47.804;12.116;2023-07-13T08:54:49;4.32;;;2.42;;
25279;SDS011;13225;47.804;12.116;2023-07-13T08:57:17;3.17;;;2.35;;
25279;SDS011;13225;47.804;12.116;2023-07-13T08:59:45;3.05;;;2.40;;
25279;SDS011;13225;47.804;12.116;2023-07-13T09:02:16;6.88;;;2.85;;
25279;SDS011;13225;47.804;12.116;2023-07-13T09:15:32;3.38;;;2.60;;
25279;SDS011;13225;47.804;12.116;2023-07-13T09:18:34;3.60;;;2.10;;
25279;SDS011;13225;47.804;12.116;2023-07-13T09:23:29;3.75;;;1.90;;
25279;SDS011;13225;47.804;12.116;2023-07-13T09:25:59;3.88;;;1.98;;
25279;SDS011;13225;47.804;12.116;2023-07-13T09:28:39;4.18;;;2.10;;
25279;SDS011;13225;47.804;12.116;2023-07-13T09:31:10;2.63;;;1.90;;
25279;SDS011;13225;47.804;12.116;2023-07-13T09:33:41;6.18;;;4.45;;
25279;SDS011;13225;47.804;12.116;2023-07-13T09:36:27;11.13;;;9.80;;
25279;SDS011;13225;47.804;12.116;2023-07-13T09:39:12;3.38;;;2.38;;
25279;SDS011;13225;47.804;12.116;2023-07-13T09:44:35;4.97;;;2.50;;
25279;SDS011;13225;47.804;12.116;2023-07-13T09:47:02;2.42;;;2.22;;
25279;SDS011;13225;47.804;12.116;2023-07-13T09:49:31;2.38;;;2.13;;
25279;SDS011;13225;47.804;12.116;2023-07-13T09:52:04;3.38;;;2.20;;
25279;SDS011;13225;47.804;12.116;2023-07-13T09:54:35;4.55;;;2.97;;
25279;SDS011;13225;47.804;12.116;2023-07-13T09:57:02;3.55;;;2.28;;
25279;SDS011;13225;47.804;12.116;2023-07-13T09:59:40;3.78;;;2.78;;
25279;SDS011;13225;47.804;12.116;2023-07-13T10:02:24;5.15;;;3.13;;
25279;SDS011;13225;47.804;12.116;2023-07-13T10:05:00;3.65;;;2.20;;
25279;SDS011;13225;47.804;12.116;2023-07-13T10:07:39;3.47;;;2.10;;
25279;SDS011;13225;47.804;12.116;2023-07-13T10:10:28;7.20;;;2.88;;
25279;SDS011;13225;47.804;12.116;2023-07-13T10:12:53;4.30;;;2.60;;
25279;SDS011;13225;47.804;12.116;2023-07-13T10:15:20;7.20;;;2.55;;
25279;SDS011;13225;47.804;12.116;2023-07-13T10:17:47;2.67;;;2.42;;
25279;SDS011;13225;47.804;12.116;2023-07-13T10:20:15;8.82;;;4.95;;
25279;SDS011;13225;47.804;12.116;2023-07-13T10:22:44;3.22;;;2.78;;
25279;SDS011;13225;47.804;12.116;2023-07-13T10:25:24;3.63;;;2.72;;
25279;SDS011;13225;47.804;12.116;2023-07-13T10:27:53;2.78;;;1.92;;
25279;SDS011;13225;47.804;12.116;2023-07-13T10:30:22;3.20;;;1.90;;
25279;SDS011;13225;47.804;12.116;2023-07-13T10:32:53;4.10;;;2.03;;
25279;SDS011;13225;47.804;12.116;2023-07-13T10:35:20;2.75;;;2.38;;
25279;SDS011;13225;47.804;12.116;2023-07-13T10:37:49;3.33;;;2.20;;
25279;SDS011;13225;47.804;12.116;2023-07-13T10:40:31;5.75;;;2.35;;
25279;SDS011;13225;47.804;12.116;2023-07-13T10:43:01;3.53;;;2.30;;
25279;SDS011;13225;47.804;12.116;2023-07-13T10:45:31;3.40;;;2.72;;
25279;SDS011;13225;47.804;12.116;2023-07-13T10:47:59;6.32;;;2.80;;
25279;SDS011;13225;47.804;12.116;2023-07-13T10:50:26;4.47;;;2.70;;
25279;SDS011;13225;47.804;12.116;2023-07-13T10:52:56;4.15;;;2.47;;
25279;SDS011;13225;47.804;12.116;2023-07-13T10:55:35;4.45;;;2.70;;
25279;SDS011;13225;47.804;12.116;2023-07-13T11:03:32;4.13;;;2.28;;
25279;SDS011;13225;47.804;12.116;2023-07-13T11:18:48;5.32;;;2.60;;
25279;SDS011;13225;47.804;12.116;2023-07-13T11:21:16;3.92;;;2.60;;
25279;SDS011;13225;47.804;12.116;2023-07-13T11:23:53;5.50;;;2.60;;
25279;SDS011;13225;47.804;12.116;2023-07-13T11:26:42;7.05;;;2.60;;
25279;SDS011;13225;47.804;12.116;2023-07-13T11:31:57;4.28;;;2.40;;
25279;SDS011;13225;47.804;12.116;2023-07-13T11:34:36;4.30;;;2.78;;
25279;SDS011;13225;47.804;12.116;2023-07-13T11:37:03;6.63;;;2.80;;
25279;SDS011;13225;47.804;12.116;2023-07-13T11:39:37;5.03;;;2.60;;
25279;SDS011;13225;47.804;12.116;2023-07-13T11:42:09;4.32;;;2.80;;
25279;SDS011;13225;47.804;12.116;2023-07-13T11:44:42;4.43;;;2.50;;
25279;SDS011;13225;47.804;12.116;2023-07-13T11:47:14;2.88;;;2.63;;
25279;SDS011;13225;47.804;12.116;2023-07-13T11:49:52;4.47;;;2.75;;
25279;SDS011;13225;47.804;12.116;2023-07-13T11:52:54;3.53;;;2.40;;
25279;SDS011;13225;47.804;12.116;2023-07-13T11:55:16;4.60;;;2.30;;
25279;SDS011;13225;47.804;12.116;2023-07-13T11:57:48;5.07;;;2.22;;
25279;SDS011;13225;47.804;12.116;2023-07-13T12:00:17;3.25;;;2.47;;
25279;SDS011;13225;47.804;12.116;2023-07-13T12:02:46;3.65;;;2.78;;
25279;SDS011;13225;47.804;12.116;2023-07-13T12:05:15;3.58;;;2.00;;
25279;SDS011;13225;47.804;12.116;2023-07-13T12:07:50;5.13;;;2.80;;
25279;SDS011;13225;47.804;12.116;2023-07-13T12:12:50;3.25;;;2.38;;
25279;SDS011;13225;47.804;12.116;2023-07-13T12:15:18;3.40;;;2.30;;
25279;SDS011;13225;47.804;12.116;2023-07-13T12:17:45;4.57;;;2.30;;
25279;SDS011;13225;47.804;12.116;2023-07-13T12:20:20;4.93;;;2.55;;
25279;SDS011;13225;47.804;12.116;2023-07-13T12:22:51;4.60;;;2.20;;
25279;SDS011;13225;47.804;12.116;2023-07-13T12:25:17;5.78;;;2.60;;
25279;SDS011;13225;47.804;12.116;2023-07-13T12:27:48;4.28;;;2.35;;
25279;SDS011;13225;47.804;12.116;2023-07-13T12:30:26;5.22;;;2.70;;
25279;SDS011;13225;47.804;12.116;2023-07-13T12:33:12;3.17;;;2.70;;
25279;SDS011;13225;47.804;12.116;2023-07-13T12:35:42;5.38;;;2.58;;
25279;SDS011;13225;47.804;12.116;2023-07-13T12:38:11;4.80;;;2.80;;
25279;SDS011;13225;47.804;12.116;2023-07-13T12:40:37;4.78;;;2.78;;
25279;SDS011;13225;47.804;12.116;2023-07-13T12:43:05;4.55;;;2.65;;
25279;SDS011;13225;47.804;12.116;2023-07-13T12:45:36;5.43;;;3.00;;
25279;SDS011;13225;47.804;12.116;2023-07-13T12:48:03;5.40;;;2.90;;
25279;SDS011;13225;47.804;12.116;2023-07-13T12:50:38;7.40;;;2.35;;
25279;SDS011;13225;47.804;12.116;2023-07-13T12:53:09;3.45;;;2.20;;
25279;SDS011;13225;47.804;12.116;2023-07-13T12:55:52;3.35;;;2.20;;
25279;SDS011;13225;47.804;12.116;2023-07-13T12:58:30;3.40;;;2.13;;
25279;SDS011;13225;47.804;12.116;2023-07-13T13:01:01;4.43;;;2.13;;
25279;SDS011;13225;47.804;12.116;2023-07-13T13:06:01;4.43;;;2.60;;
25279;SDS011;13225;47.804;12.116;2023-07-13T13:08:43;5.13;;;2.10;;
25279;SDS011;13225;47.804;12.116;2023-07-13T13:11:17;2.30;;;1.90;;
25279;SDS011;13225;47.804;12.116;2023-07-13T13:13:43;3.17;;;2.00;;
25279;SDS011;13225;47.804;12.116;2023-07-13T13:16:11;4.13;;;2.20;;
25279;SDS011;13225;47.804;12.116;2023-07-13T13:18:49;2.13;;;1.70;;
25279;SDS011;13225;47.804;12.116;2023-07-13T13:21:16;4.40;;;2.17;;
25279;SDS011;13225;47.804;12.116;2023-07-13T13:23:43;3.38;;;1.80;;
25279;SDS011;13225;47.804;12.116;2023-07-13T13:26:13;4.93;;;2.03;;
25279;SDS011;13225;47.804;12.116;2023-07-13T13:28:43;2.60;;;2.00;;
25279;SDS011;13225;47.804;12.116;2023-07-13T13:31:09;2.42;;;1.55;;
25279;SDS011;13225;47.804;12.116;2023-07-13T13:33:40;2.85;;;1.58;;
25279;SDS011;13225;47.804;12.116;2023-07-13T13:38:41;3.97;;;1.60;;
25279;SDS011;13225;47.804;12.116;2023-07-13T13:41:09;2.30;;;1.70;;
25279;SDS011;13225;47.804;12.116;2023-07-13T13:43:35;2.55;;;1.77;;
25279;SDS011;13225;47.804;12.116;2023-07-13T13:46:01;3.63;;;1.60;;
25279;SDS011;13225;47.804;12.116;2023-07-13T13:48:35;3.80;;;1.80;;
25279;SDS011;13225;47.804;12.116;2023-07-13T13:51:03;2.47;;;1.40;;
25279;SDS011;13225;47.804;12.116;2023-07-13T13:53:41;2.45;;;1.88;;
25279;SDS011;13225;47.804;12.116;2023-07-13T13:56:07;3.80;;;1.83;;
25279;SDS011;13225;47.804;12.116;2023-07-13T13:58:33;2.28;;;1.75;;
25279;SDS011;13225;47.804;12.116;2023-07-13T14:00:59;2.15;;;1.60;;
25279;SDS011;13225;47.804;12.116;2023-07-13T14:03:25;2.33;;;1.50;;
25279;SDS011;13225;47.804;12.116;2023-07-13T14:05:53;4.22;;;1.58;;
25279;SDS011;13225;47.804;12.116;2023-07-13T14:08:22;2.88;;;1.60;;
25279;SDS011;13225;47.804;12.116;2023-07-13T14:10:48;3.08;;;1.75;;
25279;SDS011;13225;47.804;12.116;2023-07-13T14:13:16;3.20;;;1.65;;
25279;SDS011;13225;47.804;12.116;2023-07-13T14:15:47;3.03;;;1.60;;
25279;SDS011;13225;47.804;12.116;2023-07-13T14:18:13;2.90;;;1.48;;
25279;SDS011;13225;47.804;12.116;2023-07-13T14:20:43;5.75;;;1.60;;
25279;SDS011;13225;47.804;12.116;2023-07-13T14:23:13;3.47;;;1.50;;
25279;SDS011;13225;47.804;12.116;2023-07-13T14:25:40;3.70;;;1.40;;
25279;SDS011;13225;47.804;12.116;2023-07-13T14:28:14;4.78;;;1.67;;
25279;SDS011;13225;47.804;12.116;2023-07-13T14:30:44;4.15;;;1.58;;
25279;SDS011;13225;47.804;12.116;2023-07-13T14:33:10;2.13;;;1.52;;
25279;SDS011;13225;47.804;12.116;2023-07-13T14:35:36;3.08;;;1.60;;
25279;SDS011;13225;47.804;12.116;2023-07-13T14:38:03;1.67;;;1.30;;
25279;SDS011;13225;47.804;12.116;2023-07-13T14:40:30;1.98;;;1.42;;
25279;SDS011;13225;47.804;12.116;2023-07-13T14:42:56;2.90;;;1.45;;
25279;SDS011;13225;47.804;12.116;2023-07-13T14:45:22;1.55;;;1.40;;
25279;SDS011;13225;47.804;12.116;2023-07-13T14:47:49;4.75;;;1.50;;
25279;SDS011;13225;47.804;12.116;2023-07-13T14:50:19;2.33;;;1.48;;
25279;SDS011;13225;47.804;12.116;2023-07-13T14:52:48;1.88;;;1.30;;
25279;SDS011;13225;47.804;12.116;2023-07-13T14:55:14;2.47;;;1.20;;
25279;SDS011;13225;47.804;12.116;2023-07-13T14:57:44;1.30;;;1.20;;
25279;SDS011;13225;47.804;12.116;2023-07-13T15:00:18;2.35;;;1.33;;
25279;SDS011;13225;47.804;12.116;2023-07-13T15:02:47;1.80;;;1.38;;
25279;SDS011;13225;47.804;12.116;2023-07-13T15:05:16;1.98;;;1.55;;
25279;SDS011;13225;47.804;12.116;2023-07-13T15:07:44;1.98;;;1.30;;
25279;SDS011;13225;47.804;12.116;2023-07-13T15:10:20;2.58;;;1.30;;
25279;SDS011;13225;47.804;12.116;2023-07-13T15:12:46;2.72;;;1.63;;
25279;SDS011;13225;47.804;12.116;2023-07-13T15:15:12;3.45;;;1.67;;
25279;SDS011;13225;47.804;12.116;2023-07-13T15:17:41;3.63;;;1.67;;
25279;SDS011;13225;47.804;12.116;2023-07-13T15:20:26;2.17;;;1.40;;
25279;SDS011;13225;47.804;12.116;2023-07-13T15:22:53;2.67;;;1.20;;
25279;SDS011;13225;47.804;12.116;2023-07-13T15:25:20;2.50;;;1.55;;
25279;SDS011;13225;47.804;12.116;2023-07-13T15:27:52;1.73;;;1.60;;